Etusivu
METAR-TAF:

METAR-TAF

Lentoasemat :

Saint-Nazaire, Ranska

Leveyspiiri: 47-19N, Pituuspiiri: 002-10W, korkeus merenpinnasta: 3 m

Tämänhetkinen sää

Tämä raportti tehtiin 15 minuuttia sitten, kello 16.00 UTC
Tuuli 9 kn idästä/koillisesta
Lämpötila 15°C
Kosteus 63%
Ilmanpaine 1030 hPa
Näkyvyys 10 km tai enemmän
Hajonneita pilviä 3700 ft:n korkeudessa

METAR: LFRZ 211600Z AUTO 06009KT 9999 BKN037 15/08 Q1030 NOSIG

Aika: 17:15 (16:15 UTC)

Sääennuste

Tämä raportti tehtiin 5 tuntia ja 15 minuuttia sitten, kello 11.00 UTC
Ennuste voimassa 21. päivästä klo 12 UTC - 22. päivään klo 12 UTC
Tuuli 5 kn pohjoisesta/koillisesta
Näkyvyys 10 km tai enemmän
ei pilviä alle 1500 m:ssä eikä cumulonimbus-pilviä
Ajoittain
22. päivästä klo 00 UTC - 22. päivään klo 08 UTC
Näkyvyys: 3000 m
utua
Ajoittain
22. päivästä klo 02 UTC - 22. päivään klo 06 UTC
Näkyvyys: 0500 m
sumua

TAF: LFRZ 211100Z 2112/2212 02005KT CAVOK TEMPO 2200/2208 3000 BR TEMPO 2202/2206 0500 FG VV///

Säähavainnot ja -ennusteet yli 4000 lentoasemalta (METAR- ja TAF-raportit).

Käytössä olevat sääasemat on merkitty karttaan keltaisilla ja punaisilla pisteillä.

Aseta hiiri pisteen päälle nähdäksesi sääaseman nimen.

Klikkaa sitten nähdäksesi säähavainnot ja -ennusteet.

Kartan vaihtaminen: klikkaa mustalla rastilla varustettuja vihreitä pisteitä, niin voit zoomata sisään; viivalla varustettua vihreää pistettä, niin voit zoomata ulos tai vihreitä nuolia, niin pääset viereisille kartoille.


METAR-TAF: